Time;durP1;ratioP1;P1;durP2;ratioP2;P2;SDS_P1;SDS_P2;PMS_P1;PMS_P2;Temp;Humidity;BMP_temperature;BMP_pressure;BME280_temperature;BME280_humidity;BME280_pressure;Samples;Min_cycle;Max_cycle;Signal;HPM_P1;HPM_P2
2022/07/15 00:02:00;;;;;;;;;;;22.00;44.30;;;;;;5075006;28;20365;-56
2022/07/15 00:04:27;;;;;;;;;;;22.00;44.30;;;;;;5090372;28;20277;-57
2022/07/15 00:06:53;;;;;;;;;;;22.00;44.30;;;;;;5054693;28;19921;-58
2022/07/15 00:09:20;;;;;;;;;;;22.00;44.30;;;;;;5055075;28;20016;-58
2022/07/15 00:11:47;;;;;;;;;;;22.00;44.30;;;;;;5079618;28;19920;-56
2022/07/15 00:14:15;;;;;;;;;;;22.00;44.30;;;;;;5090707;28;19978;-57
2022/07/15 00:16:42;;;;;;;;;;;22.10;44.40;;;;;;5107572;28;19943;-57
2022/07/15 00:19:09;;;;;;;;;;;22.00;44.30;;;;;;5090952;28;19970;-57
2022/07/15 00:21:35;;;;;;;;;;;22.00;44.30;;;;;;5075196;28;20239;-58
2022/07/15 00:24:02;;;;;;;;;;;22.10;44.40;;;;;;5073925;28;19925;-57
2022/07/15 00:26:29;;;;;;;;;;;22.00;44.30;;;;;;5071667;28;19928;-57
2022/07/15 00:28:56;;;;;;;;;;;22.00;44.30;;;;;;5070107;28;19928;-58
2022/07/15 00:31:24;;;;;;;;;;;22.00;44.30;;;;;;5069967;28;19927;-57
2022/07/15 00:33:50;;;;;;;;;;;22.00;44.30;;;;;;5070227;28;19928;-58
2022/07/15 00:36:17;;;;;;;;;;;22.00;44.30;;;;;;5052685;28;19921;-58
2022/07/15 00:38:48;;;;;;;;;;;22.00;44.30;;;;;;5070070;28;19921;-57
2022/07/15 00:41:14;;;;;;;;;;;22.00;44.30;;;;;;5082982;28;20011;-58
2022/07/15 00:43:41;;;;;;;;;;;22.10;44.40;;;;;;5074579;28;19920;-58
2022/07/15 00:46:08;;;;;;;;;;;22.00;44.30;;;;;;5072765;28;19943;-58
2022/07/15 00:48:36;;;;;;;;;;;22.10;44.50;;;;;;5089660;28;19943;-58
2022/07/15 00:51:03;;;;;;;;;;;22.10;44.50;;;;;;5085456;28;19974;-58
2022/07/15 00:53:32;;;;;;;;;;;22.10;44.50;;;;;;5109854;28;19927;-58
2022/07/15 00:55:59;;;;;;;;;;;22.10;44.50;;;;;;5094290;28;19924;-57
2022/07/15 00:58:26;;;;;;;;;;;22.10;44.50;;;;;;5109904;28;20422;-58
2022/07/15 01:00:53;;;;;;;;;;;22.00;44.40;;;;;;5093253;28;19920;-57
2022/07/15 01:03:20;;;;;;;;;;;22.10;44.50;;;;;;5093277;28;19920;-58
2022/07/15 01:05:48;;;;;;;;;;;22.00;44.40;;;;;;5093706;28;19966;-58
2022/07/15 01:08:17;;;;;;;;;;;22.10;44.50;;;;;;5093185;28;19924;-60
2022/07/15 01:10:44;;;;;;;;;;;22.00;44.40;;;;;;5088141;28;19948;-57
2022/07/15 01:13:11;;;;;;;;;;;22.10;44.50;;;;;;5090633;28;20304;-59
2022/07/15 01:15:38;;;;;;;;;;;22.10;44.50;;;;;;5089660;28;20065;-58
2022/07/15 01:18:05;;;;;;;;;;;22.10;44.50;;;;;;5074389;28;19920;-58
2022/07/15 01:20:32;;;;;;;;;;;22.10;44.50;;;;;;5090105;28;19921;-57
2022/07/15 01:23:00;;;;;;;;;;;22.10;44.50;;;;;;5073107;28;20023;-57
2022/07/15 01:25:26;;;;;;;;;;;22.10;44.50;;;;;;5088462;28;19921;-58
2022/07/15 01:27:53;;;;;;;;;;;22.00;44.40;;;;;;5089319;28;19920;-58
2022/07/15 01:30:20;;;;;;;;;;;22.10;44.50;;;;;;5095489;28;19927;-58
2022/07/15 01:32:47;;;;;;;;;;;22.10;44.50;;;;;;5093036;28;19920;-58
2022/07/15 01:35:13;;;;;;;;;;;22.10;44.40;;;;;;5085836;28;19959;-58
2022/07/15 01:37:40;;;;;;;;;;;22.00;44.30;;;;;;5106702;28;19921;-58
2022/07/15 01:40:09;;;;;;;;;;;22.10;44.40;;;;;;5070735;28;19925;-58
2022/07/15 01:42:36;;;;;;;;;;;22.10;44.40;;;;;;5074100;28;19920;-58
2022/07/15 01:45:02;;;;;;;;;;;22.10;44.40;;;;;;5072542;28;19989;-58
2022/07/15 01:47:31;;;;;;;;;;;22.10;44.40;;;;;;5073860;28;20367;-56
2022/07/15 01:49:56;;;;;;;;;;;22.10;44.30;;;;;;5106301;28;20357;-57
2022/07/15 01:52:24;;;;;;;;;;;22.00;44.20;;;;;;5106142;28;19920;-57
2022/07/15 01:54:51;;;;;;;;;;;22.00;44.80;;;;;;5107698;28;20015;-57
2022/07/15 01:57:19;;;;;;;;;;;22.10;44.30;;;;;;5093758;28;19920;-56
2022/07/15 01:59:46;;;;;;;;;;;22.10;44.20;;;;;;5089075;28;20265;-58
2022/07/15 02:02:12;;;;;;;;;;;22.10;44.20;;;;;;5071885;28;19968;-58
2022/07/15 02:04:39;;;;;;;;;;;22.00;44.10;;;;;;5103898;28;20312;-59
2022/07/15 02:07:06;;;;;;;;;;;22.00;44.10;;;;;;5060112;28;20405;-58
2022/07/15 02:09:33;;;;;;;;;;;22.00;44.10;;;;;;5096210;28;19927;-58
2022/07/15 02:12:00;;;;;;;;;;;22.10;44.20;;;;;;5095511;28;19967;-58
2022/07/15 02:14:28;;;;;;;;;;;22.10;44.20;;;;;;5096189;28;19928;-58
2022/07/15 02:16:55;;;;;;;;;;;22.00;44.10;;;;;;5079313;28;20014;-59
2022/07/15 02:19:22;;;;;;;;;;;22.10;44.20;;;;;;5095890;28;19974;-58
2022/07/15 02:21:49;;;;;;;;;;;22.10;44.20;;;;;;5096610;28;19920;-58
2022/07/15 02:24:19;;;;;;;;;;;22.00;44.10;;;;;;5095980;28;19920;-58
2022/07/15 02:26:45;;;;;;;;;;;22.00;44.10;;;;;;5076175;28;20361;-58
2022/07/15 02:29:12;;;;;;;;;;;22.10;44.20;;;;;;5075875;28;19984;-58
2022/07/15 02:31:40;;;;;;;;;;;22.10;44.20;;;;;;5072294;28;20003;-58
2022/07/15 02:34:07;;;;;;;;;;;22.00;44.10;;;;;;5075242;28;19980;-58
2022/07/15 02:36:35;;;;;;;;;;;22.10;44.30;;;;;;5109360;28;19927;-58
2022/07/15 02:39:02;;;;;;;;;;;22.10;44.30;;;;;;5075925;28;19991;-58
2022/07/15 02:41:29;;;;;;;;;;;22.10;44.40;;;;;;5089211;28;19920;-57
2022/07/15 02:43:56;;;;;;;;;;;22.10;44.40;;;;;;5092802;28;19981;-58
2022/07/15 02:46:22;;;;;;;;;;;22.00;44.90;;;;;;5074368;28;19959;-58
2022/07/15 02:48:51;;;;;;;;;;;22.10;44.50;;;;;;5072396;28;19920;-58
2022/07/15 02:51:17;;;;;;;;;;;22.10;44.50;;;;;;5071819;28;20015;-58
2022/07/15 02:53:44;;;;;;;;;;;22.10;44.50;;;;;;5056027;28;20346;-58
2022/07/15 02:56:11;;;;;;;;;;;22.10;44.50;;;;;;5100948;28;19920;-58
2022/07/15 02:58:38;;;;;;;;;;;22.10;44.60;;;;;;5109075;28;20368;-58
2022/07/15 03:01:05;;;;;;;;;;;22.10;44.60;;;;;;5074281;28;20019;-58
2022/07/15 03:03:31;;;;;;;;;;;22.10;44.60;;;;;;5074926;28;19996;-58
2022/07/15 03:06:00;;;;;;;;;;;22.10;44.60;;;;;;5091779;28;20411;-57
2022/07/15 03:08:27;;;;;;;;;;;22.10;44.70;;;;;;5075098;28;19928;-58
2022/07/15 03:10:53;;;;;;;;;;;22.10;44.70;;;;;;5073849;28;20312;-58
2022/07/15 03:13:20;;;;;;;;;;;22.10;44.70;;;;;;5075901;28;20316;-58
2022/07/15 03:15:47;;;;;;;;;;;22.10;44.70;;;;;;5079385;28;20385;-58
2022/07/15 03:18:14;;;;;;;;;;;22.10;44.70;;;;;;5055612;28;19921;-58
2022/07/15 03:20:40;;;;;;;;;;;22.10;44.70;;;;;;5070996;28;19927;-58
2022/07/15 03:23:09;;;;;;;;;;;22.10;44.70;;;;;;5071724;28;20360;-58
2022/07/15 03:25:35;;;;;;;;;;;22.10;44.70;;;;;;5078628;28;19970;-58
2022/07/15 03:28:02;;;;;;;;;;;22.10;44.70;;;;;;5091613;28;20011;-57
2022/07/15 03:30:29;;;;;;;;;;;22.10;44.70;;;;;;5088441;28;19928;-58
2022/07/15 03:32:56;;;;;;;;;;;22.10;44.80;;;;;;5090882;28;19974;-57
2022/07/15 03:35:23;;;;;;;;;;;22.10;44.80;;;;;;5091138;28;19975;-57
2022/07/15 03:37:50;;;;;;;;;;;22.10;44.80;;;;;;5091226;28;19920;-58
2022/07/15 03:40:18;;;;;;;;;;;22.10;44.80;;;;;;5089043;28;20381;-57
2022/07/15 03:42:45;;;;;;;;;;;22.10;44.80;;;;;;5074631;28;19920;-58
2022/07/15 03:45:12;;;;;;;;;;;22.10;44.80;;;;;;5078786;28;19924;-57
2022/07/15 03:47:39;;;;;;;;;;;22.10;44.70;;;;;;5095535;28;19927;-57
2022/07/15 03:50:06;;;;;;;;;;;22.10;44.70;;;;;;5088417;28;20027;-58
2022/07/15 03:52:33;;;;;;;;;;;22.10;44.80;;;;;;5074203;28;19924;-57
2022/07/15 03:54:59;;;;;;;;;;;22.10;44.80;;;;;;5089279;28;19967;-57
2022/07/15 03:57:28;;;;;;;;;;;22.10;44.80;;;;;;5090756;28;19920;-58
2022/07/15 03:59:55;;;;;;;;;;;22.10;44.80;;;;;;5089269;28;19943;-58
2022/07/15 04:02:21;;;;;;;;;;;22.10;44.80;;;;;;5089661;28;19931;-57
2022/07/15 04:04:48;;;;;;;;;;;22.10;44.80;;;;;;5075177;28;19924;-58
2022/07/15 04:07:15;;;;;;;;;;;22.10;44.80;;;;;;5074895;28;19921;-57
2022/07/15 04:09:42;;;;;;;;;;;22.10;44.80;;;;;;5089512;28;19951;-57
2022/07/15 04:12:10;;;;;;;;;;;22.10;44.80;;;;;;5091098;28;20223;-58
2022/07/15 04:14:38;;;;;;;;;;;22.10;44.80;;;;;;5071726;28;19920;-58
2022/07/15 04:17:05;;;;;;;;;;;22.10;44.80;;;;;;5073576;28;19975;-58
2022/07/15 04:19:31;;;;;;;;;;;22.10;44.80;;;;;;5106024;28;19928;-58
2022/07/15 04:21:58;;;;;;;;;;;22.10;44.80;;;;;;5091054;28;19928;-57
2022/07/15 04:24:25;;;;;;;;;;;22.10;44.80;;;;;;5090491;28;19924;-56
2022/07/15 04:26:52;;;;;;;;;;;22.10;44.80;;;;;;5072578;28;19932;-58
2022/07/15 04:29:19;;;;;;;;;;;22.10;44.80;;;;;;5107901;28;20312;-58
2022/07/15 04:31:47;;;;;;;;;;;22.10;44.80;;;;;;5104593;28;19927;-58
2022/07/15 04:34:14;;;;;;;;;;;22.10;44.80;;;;;;5090221;28;20366;-58
2022/07/15 04:36:40;;;;;;;;;;;22.00;44.70;;;;;;5090673;28;19920;-58
2022/07/15 04:39:07;;;;;;;;;;;22.00;44.70;;;;;;5090603;28;19943;-58
2022/07/15 04:41:34;;;;;;;;;;;22.10;44.90;;;;;;5087215;28;19921;-57
2022/07/15 04:44:01;;;;;;;;;;;22.00;44.80;;;;;;5090995;28;19927;-60
2022/07/15 04:46:27;;;;;;;;;;;22.10;44.90;;;;;;5054953;28;20012;-58
2022/07/15 04:51:39;;;;;;;;;;;22.10;45.00;;;;;;5069861;28;20005;-58
2022/07/15 04:54:06;;;;;;;;;;;22.00;44.90;;;;;;5070157;28;19921;-58
2022/07/15 04:56:33;;;;;;;;;;;22.10;45.00;;;;;;5084253;28;19970;-58
2022/07/15 04:58:59;;;;;;;;;;;22.00;44.90;;;;;;5093548;28;19927;-58
2022/07/15 05:01:26;;;;;;;;;;;22.10;45.10;;;;;;5066311;28;19925;-57
2022/07/15 05:03:53;;;;;;;;;;;22.10;45.10;;;;;;5069462;28;19924;-58
2022/07/15 05:06:21;;;;;;;;;;;22.10;45.10;;;;;;5081922;28;19965;-58
2022/07/15 05:08:48;;;;;;;;;;;22.00;45.00;;;;;;5110278;28;19972;-58
2022/07/15 05:11:14;;;;;;;;;;;22.10;45.10;;;;;;5068464;28;19967;-58
2022/07/15 05:13:41;;;;;;;;;;;22.10;45.10;;;;;;5054677;28;19928;-58
2022/07/15 05:16:08;;;;;;;;;;;22.10;45.20;;;;;;5066121;28;19920;-58
2022/07/15 05:18:35;;;;;;;;;;;22.10;45.20;;;;;;5073920;28;20007;-58
2022/07/15 05:21:02;;;;;;;;;;;22.10;45.20;;;;;;5072008;28;19932;-58
2022/07/15 05:23:30;;;;;;;;;;;22.10;45.30;;;;;;5073123;28;19975;-58
2022/07/15 05:25:57;;;;;;;;;;;22.10;45.20;;;;;;5073139;28;19924;-58
2022/07/15 05:28:24;;;;;;;;;;;22.10;45.30;;;;;;5107180;28;19924;-58
2022/07/15 05:30:50;;;;;;;;;;;22.10;45.30;;;;;;5106961;28;19927;-58
2022/07/15 05:33:17;;;;;;;;;;;22.10;45.30;;;;;;5093877;28;19979;-56
2022/07/15 05:35:44;;;;;;;;;;;22.10;45.30;;;;;;5081510;28;19955;-57
2022/07/15 05:38:11;;;;;;;;;;;22.10;45.40;;;;;;5072448;28;19943;-58
2022/07/15 05:40:39;;;;;;;;;;;22.10;45.40;;;;;;5107909;28;19973;-58
2022/07/15 05:43:07;;;;;;;;;;;22.10;46.00;;;;;;5076982;28;19924;-58
2022/07/15 05:45:33;;;;;;;;;;;22.10;45.40;;;;;;5066704;28;19970;-58
2022/07/15 05:48:00;;;;;;;;;;;22.10;45.40;;;;;;5057417;28;20312;-58
2022/07/15 05:50:27;;;;;;;;;;;22.10;45.40;;;;;;5071945;28;19920;-58
2022/07/15 05:52:54;;;;;;;;;;;22.10;45.40;;;;;;5097057;28;20265;-58
2022/07/15 05:55:21;;;;;;;;;;;22.10;45.40;;;;;;5113475;28;19959;-58
2022/07/15 05:57:49;;;;;;;;;;;22.10;45.40;;;;;;5113492;28;19921;-58
2022/07/15 06:00:16;;;;;;;;;;;22.10;45.30;;;;;;5082248;28;20282;-58
2022/07/15 06:02:43;;;;;;;;;;;22.10;45.90;;;;;;5070939;28;20140;-57
2022/07/15 06:05:09;;;;;;;;;;;22.10;45.30;;;;;;5061033;28;19920;-58
2022/07/15 06:07:36;;;;;;;;;;;22.10;45.30;;;;;;5093610;28;19920;-58
2022/07/15 06:10:03;;;;;;;;;;;22.10;45.30;;;;;;5070615;28;19924;-58
2022/07/15 06:12:30;;;;;;;;;;;22.00;45.20;;;;;;5103845;28;20365;-57
2022/07/15 06:14:58;;;;;;;;;;;22.10;45.30;;;;;;5097204;28;20238;-58
2022/07/15 06:17:25;;;;;;;;;;;22.00;45.30;;;;;;5095892;28;20276;-58
2022/07/15 06:19:51;;;;;;;;;;;22.10;45.40;;;;;;5091943;28;20400;-58
2022/07/15 06:22:18;;;;;;;;;;;22.00;45.30;;;;;;5092955;28;19920;-58
2022/07/15 06:24:46;;;;;;;;;;;22.00;45.30;;;;;;5092346;28;19927;-58
2022/07/15 06:27:12;;;;;;;;;;;22.00;45.30;;;;;;5076397;28;19920;-58
2022/07/15 06:29:39;;;;;;;;;;;22.00;45.40;;;;;;5090904;28;19925;-59
2022/07/15 06:32:08;;;;;;;;;;;22.00;45.40;;;;;;5107967;28;19925;-58
2022/07/15 06:34:34;;;;;;;;;;;22.10;45.50;;;;;;5074500;28;19934;-58
2022/07/15 06:37:01;;;;;;;;;;;22.10;45.50;;;;;;5076453;28;19927;-58
2022/07/15 06:39:28;;;;;;;;;;;22.00;45.40;;;;;;5092572;28;19921;-58
2022/07/15 06:41:54;;;;;;;;;;;22.10;45.50;;;;;;5089671;28;19920;-58
2022/07/15 06:44:23;;;;;;;;;;;22.00;45.50;;;;;;5092758;28;19921;-58
2022/07/15 06:46:50;;;;;;;;;;;22.10;45.60;;;;;;5089852;28;19928;-58
2022/07/15 06:49:18;;;;;;;;;;;22.10;45.60;;;;;;5091949;28;20311;-58
2022/07/15 06:51:45;;;;;;;;;;;22.10;45.50;;;;;;5092669;28;19927;-58
2022/07/15 06:54:12;;;;;;;;;;;22.10;45.60;;;;;;5092103;28;19920;-58
2022/07/15 06:56:39;;;;;;;;;;;22.10;45.50;;;;;;5092005;28;19920;-58
2022/07/15 06:59:06;;;;;;;;;;;22.10;45.60;;;;;;5091824;28;19920;-58
2022/07/15 07:01:33;;;;;;;;;;;22.10;45.60;;;;;;5091687;28;19950;-58
2022/07/15 07:04:00;;;;;;;;;;;22.10;45.50;;;;;;5091337;28;19921;-58
2022/07/15 07:06:28;;;;;;;;;;;22.10;45.60;;;;;;5075831;28;20324;-58
2022/07/15 07:08:55;;;;;;;;;;;22.10;46.10;;;;;;5091979;28;20315;-58
2022/07/15 07:11:22;;;;;;;;;;;22.10;45.60;;;;;;5089402;28;19928;-56
2022/07/15 07:13:49;;;;;;;;;;;22.10;45.60;;;;;;5091441;28;19921;-58
2022/07/15 07:16:16;;;;;;;;;;;22.10;45.50;;;;;;5089070;28;20357;-58
2022/07/15 07:18:44;;;;;;;;;;;22.10;45.50;;;;;;5091621;28;19921;-58
2022/07/15 07:21:11;;;;;;;;;;;22.20;45.40;;;;;;5102919;28;20289;-58
2022/07/15 07:23:40;;;;;;;;;;;22.10;45.30;;;;;;5094956;28;20313;-58
2022/07/15 07:26:06;;;;;;;;;;;22.10;45.30;;;;;;5096361;28;19921;-58
2022/07/15 07:28:33;;;;;;;;;;;22.10;45.20;;;;;;5089751;28;20369;-58
2022/07/15 07:31:00;;;;;;;;;;;22.00;45.10;;;;;;5079441;28;19920;-58
2022/07/15 07:33:27;;;;;;;;;;;22.00;45.10;;;;;;5091244;28;19926;-58
2022/07/15 07:35:53;;;;;;;;;;;22.00;45.10;;;;;;5089163;28;19920;-57
2022/07/15 07:38:21;;;;;;;;;;;22.00;45.00;;;;;;5091258;28;19921;-58
2022/07/15 07:40:49;;;;;;;;;;;22.00;45.00;;;;;;5071373;28;19951;-58
2022/07/15 07:43:17;;;;;;;;;;;22.00;44.90;;;;;;5106661;28;20230;-58
2022/07/15 07:45:43;;;;;;;;;;;22.00;45.00;;;;;;5105652;28;19921;-58
2022/07/15 07:48:11;;;;;;;;;;;21.90;44.90;;;;;;5075057;28;19920;-56
2022/07/15 07:50:38;;;;;;;;;;;21.90;44.90;;;;;;5089615;28;19920;-57
2022/07/15 07:53:04;;;;;;;;;;;21.90;45.00;;;;;;5091411;28;20019;-57
2022/07/15 07:55:31;;;;;;;;;;;21.90;45.00;;;;;;5091215;28;19920;-58
2022/07/15 07:57:59;;;;;;;;;;;21.90;45.10;;;;;;5091530;28;19925;-58
2022/07/15 08:00:26;;;;;;;;;;;21.90;45.10;;;;;;5074831;28;20014;-58
2022/07/15 08:02:53;;;;;;;;;;;21.90;45.10;;;;;;5088195;28;20365;-58
2022/07/15 08:05:20;;;;;;;;;;;21.90;45.10;;;;;;5074913;28;19942;-58
2022/07/15 08:07:47;;;;;;;;;;;21.90;45.20;;;;;;5073510;28;19921;-58
2022/07/15 08:10:14;;;;;;;;;;;21.90;45.20;;;;;;5074788;28;19920;-58
2022/07/15 08:12:41;;;;;;;;;;;21.90;45.30;;;;;;5074636;28;19974;-58
2022/07/15 08:15:10;;;;;;;;;;;21.90;45.30;;;;;;5083716;28;19921;-57
2022/07/15 08:17:37;;;;;;;;;;;21.90;45.30;;;;;;5054928;28;19950;-58
2022/07/15 08:20:04;;;;;;;;;;;21.90;45.30;;;;;;5081398;28;19943;-56
2022/07/15 08:22:31;;;;;;;;;;;21.90;45.30;;;;;;5070607;28;19928;-58
2022/07/15 08:24:58;;;;;;;;;;;22.00;45.40;;;;;;5060817;28;19982;-58
2022/07/15 08:27:25;;;;;;;;;;;22.00;45.40;;;;;;5095236;28;19927;-60
2022/07/15 08:29:52;;;;;;;;;;;22.00;45.50;;;;;;5086268;28;20007;-58
2022/07/15 08:32:20;;;;;;;;;;;22.00;45.50;;;;;;5083375;28;19921;-58
2022/07/15 08:34:47;;;;;;;;;;;22.00;45.50;;;;;;5069728;28;19925;-57
2022/07/15 08:37:13;;;;;;;;;;;22.00;45.50;;;;;;5069945;28;19921;-54
2022/07/15 08:39:40;;;;;;;;;;;22.00;45.40;;;;;;5069985;28;19971;-56
2022/07/15 08:42:10;;;;;;;;;;;22.00;45.30;;;;;;5069716;28;19924;-54
2022/07/15 08:44:36;;;;;;;;;;;22.00;45.40;;;;;;5070519;28;19931;-58
2022/07/15 08:47:05;;;;;;;;;;;21.90;45.30;;;;;;5070776;28;19970;-57
2022/07/15 08:49:34;;;;;;;;;;;21.90;45.40;;;;;;5069852;28;20273;-58
2022/07/15 08:52:00;;;;;;;;;;;21.90;45.30;;;;;;5070666;28;20261;-58
2022/07/15 08:54:27;;;;;;;;;;;21.90;45.30;;;;;;5070538;28;19920;-57
2022/07/15 08:56:54;;;;;;;;;;;21.90;45.40;;;;;;5054584;28;19966;-55
2022/07/15 08:59:21;;;;;;;;;;;21.90;45.40;;;;;;5054218;28;19943;-56
2022/07/15 09:01:48;;;;;;;;;;;21.90;45.40;;;;;;5070545;28;19943;-57
2022/07/15 09:04:15;;;;;;;;;;;21.90;45.30;;;;;;5073934;28;19943;-57
2022/07/15 09:06:46;;;;;;;;;;;21.80;45.30;;;;;;5071597;28;20011;-55
2022/07/15 09:09:29;;;;;;;;;;;21.80;45.30;;;;;;5090478;28;19958;-57
2022/07/15 09:11:57;;;;;;;;;;;21.80;45.20;;;;;;5087826;28;19939;-57
2022/07/15 09:14:24;;;;;;;;;;;21.80;45.20;;;;;;5092653;28;19955;-58
2022/07/15 09:16:52;;;;;;;;;;;21.80;45.20;;;;;;5094294;28;19969;-57
2022/07/15 09:19:18;;;;;;;;;;;21.80;45.20;;;;;;5097024;28;19982;-57
2022/07/15 09:21:57;;;;;;;;;;;21.80;45.20;;;;;;5075810;28;19927;-58
2022/07/15 09:24:23;;;;;;;;;;;21.80;45.20;;;;;;5078355;28;19920;-56
2022/07/15 09:26:50;;;;;;;;;;;21.80;45.10;;;;;;5108931;28;19947;-56
2022/07/15 09:34:59;;;;;;;;;;;21.80;45.10;;;;;;5059617;28;20492;-58
2022/07/15 09:37:27;;;;;;;;;;;21.80;45.00;;;;;;5096930;28;19920;-57
2022/07/15 09:39:54;;;;;;;;;;;21.70;44.90;;;;;;5084271;28;19920;-58
2022/07/15 09:42:21;;;;;;;;;;;21.70;44.90;;;;;;5084937;28;19970;-57
2022/07/15 09:44:50;;;;;;;;;;;21.70;44.80;;;;;;5094180;28;19931;-56
2022/07/15 09:47:19;;;;;;;;;;;21.70;44.80;;;;;;5093429;28;20110;-57
2022/07/15 09:49:47;;;;;;;;;;;21.70;44.90;;;;;;5094630;28;19938;-57
2022/07/15 09:52:19;;;;;;;;;;;21.70;45.00;;;;;;5097165;28;20018;-55
2022/07/15 09:54:47;;;;;;;;;;;21.70;45.10;;;;;;5095351;28;19920;-56
2022/07/15 09:57:15;;;;;;;;;;;21.70;45.20;;;;;;5096677;28;19982;-57
2022/07/15 09:59:42;;;;;;;;;;;21.70;45.10;;;;;;5094724;28;19920;-57
2022/07/15 10:02:09;;;;;;;;;;;21.70;45.10;;;;;;5073747;28;19921;-57
2022/07/15 10:04:35;;;;;;;;;;;21.60;44.90;;;;;;5071183;28;19927;-59
2022/07/15 10:07:04;;;;;;;;;;;21.60;44.70;;;;;;5072732;28;19974;-57
2022/07/15 10:09:31;;;;;;;;;;;21.60;44.30;;;;;;5055836;28;19921;-55
2022/07/15 10:12:00;;;;;;;;;;;21.60;43.90;;;;;;5077116;28;19928;-57
2022/07/15 10:14:34;;;;;;;;;;;21.50;43.80;;;;;;5076370;28;19920;-57
2022/07/15 10:17:19;;;;;;;;;;;21.50;43.80;;;;;;5076697;28;19928;-57
2022/07/15 10:19:51;;;;;;;;;;;21.50;43.80;;;;;;5075298;28;19920;-57
2022/07/15 10:22:20;;;;;;;;;;;21.50;43.90;;;;;;5092501;28;19975;-57
2022/07/15 10:24:55;;;;;;;;;;;21.40;43.80;;;;;;5073797;28;19927;-55
2022/07/15 10:27:36;;;;;;;;;;;21.40;43.40;;;;;;5076944;28;19920;-57
2022/07/15 10:30:04;;;;;;;;;;;21.40;43.40;;;;;;5075120;28;19928;-57
2022/07/15 10:32:30;;;;;;;;;;;21.40;43.40;;;;;;5076745;28;19921;-57
2022/07/15 10:34:57;;;;;;;;;;;21.40;43.30;;;;;;5070575;28;19928;-57
2022/07/15 10:37:27;;;;;;;;;;;21.40;43.20;;;;;;5077690;28;19920;-57
2022/07/15 10:39:55;;;;;;;;;;;21.40;43.20;;;;;;5076698;28;20021;-57
2022/07/15 10:42:21;;;;;;;;;;;21.40;42.90;;;;;;5074777;28;19974;-57
2022/07/15 10:44:50;;;;;;;;;;;21.40;42.90;;;;;;5110032;28;19924;-56
2022/07/15 10:47:17;;;;;;;;;;;21.40;42.90;;;;;;5075962;28;20307;-57
2022/07/15 10:49:44;;;;;;;;;;;21.40;43.00;;;;;;5075086;28;19964;-57
2022/07/15 10:52:12;;;;;;;;;;;21.40;42.90;;;;;;5077147;28;20361;-57
2022/07/15 10:54:41;;;;;;;;;;;21.40;42.90;;;;;;5107387;28;19928;-57
2022/07/15 10:57:07;;;;;;;;;;;21.40;42.80;;;;;;5074943;28;20011;-57
2022/07/15 10:59:36;;;;;;;;;;;21.40;42.80;;;;;;5075977;28;19920;-57
2022/07/15 11:02:13;;;;;;;;;;;21.40;42.80;;;;;;5103400;28;19920;-57
2022/07/15 11:04:41;;;;;;;;;;;21.40;42.80;;;;;;5096334;28;19926;-57
2022/07/15 11:07:32;;;;;;;;;;;21.40;42.80;;;;;;5095835;28;19924;-57
2022/07/15 11:10:13;;;;;;;;;;;21.40;42.80;;;;;;5096789;28;19924;-57
2022/07/15 11:12:59;;;;;;;;;;;21.40;42.90;;;;;;5088915;28;20023;-58
2022/07/15 11:15:26;;;;;;;;;;;21.50;42.90;;;;;;5077296;28;20002;-60
2022/07/15 11:17:55;;;;;;;;;;;21.50;43.10;;;;;;5089096;28;19935;-61
2022/07/15 11:20:23;;;;;;;;;;;21.50;43.20;;;;;;5089925;28;20312;-59
2022/07/15 11:22:50;;;;;;;;;;;21.50;43.30;;;;;;5091890;28;19927;-58
2022/07/15 11:25:17;;;;;;;;;;;21.50;43.30;;;;;;5065949;28;20324;-58
2022/07/15 11:27:46;;;;;;;;;;;21.50;43.50;;;;;;5071916;28;19928;-58
2022/07/15 11:30:13;;;;;;;;;;;21.50;43.60;;;;;;5055962;28;19967;-58
2022/07/15 11:32:39;;;;;;;;;;;21.50;43.60;;;;;;5103470;28;19920;-61
2022/07/15 11:35:08;;;;;;;;;;;21.50;43.60;;;;;;5089605;28;20300;-58
2022/07/15 11:37:35;;;;;;;;;;;21.60;43.60;;;;;;5090406;28;20360;-58
2022/07/15 11:40:06;;;;;;;;;;;21.60;43.60;;;;;;5078459;28;19926;-58
2022/07/15 11:45:19;;;;;;;;;;;21.60;43.60;;;;;;5093814;28;19927;-58
2022/07/15 11:47:55;;;;;;;;;;;21.60;43.60;;;;;;5093202;28;20499;-60
2022/07/15 11:50:23;;;;;;;;;;;21.60;43.70;;;;;;5094060;28;19926;-58
2022/07/15 11:52:53;;;;;;;;;;;21.60;43.70;;;;;;5094038;28;20349;-58
2022/07/15 11:55:20;;;;;;;;;;;21.60;43.80;;;;;;5092815;28;19920;-58
2022/07/15 11:57:47;;;;;;;;;;;21.60;43.80;;;;;;5111585;28;19920;-57
2022/07/15 12:00:14;;;;;;;;;;;21.60;43.80;;;;;;5109989;28;19982;-58
2022/07/15 12:02:41;;;;;;;;;;;21.60;43.90;;;;;;5072470;28;19920;-58
2022/07/15 12:05:08;;;;;;;;;;;21.60;44.00;;;;;;5067567;28;19921;-58
2022/07/15 12:07:44;;;;;;;;;;;21.70;44.10;;;;;;5070294;28;20429;-58
2022/07/15 12:10:11;;;;;;;;;;;21.60;44.00;;;;;;5057892;28;20317;-57
2022/07/15 12:12:41;;;;;;;;;;;21.70;44.10;;;;;;5088956;28;19927;-58
2022/07/15 12:15:09;;;;;;;;;;;21.70;44.10;;;;;;5088435;28;19927;-57
2022/07/15 12:17:35;;;;;;;;;;;21.70;44.10;;;;;;5088821;28;19974;-57
2022/07/15 12:20:04;;;;;;;;;;;21.70;44.80;;;;;;5088700;28;20361;-56
2022/07/15 12:22:30;;;;;;;;;;;21.80;44.30;;;;;;5088729;28;20011;-58
2022/07/15 12:24:59;;;;;;;;;;;21.80;44.30;;;;;;5072806;28;19920;-58
2022/07/15 12:27:32;;;;;;;;;;;21.80;44.30;;;;;;5074939;28;19920;-57
2022/07/15 12:30:01;;;;;;;;;;;21.80;44.40;;;;;;5086327;28;20486;-58
2022/07/15 12:32:27;;;;;;;;;;;21.80;44.40;;;;;;5105717;28;19920;-58
2022/07/15 12:34:55;;;;;;;;;;;21.80;44.40;;;;;;5093684;28;20303;-57
2022/07/15 12:37:22;;;;;;;;;;;21.80;44.50;;;;;;5093703;28;19969;-57
2022/07/15 12:39:56;;;;;;;;;;;21.90;44.50;;;;;;5089433;28;20280;-57
2022/07/15 12:42:25;;;;;;;;;;;21.90;44.70;;;;;;5072968;28;19928;-56
2022/07/15 12:45:09;;;;;;;;;;;21.80;44.90;;;;;;5054542;28;19921;-58
2022/07/15 12:47:36;;;;;;;;;;;21.90;45.40;;;;;;5074164;28;19924;-57
2022/07/15 12:50:03;;;;;;;;;;;21.90;45.70;;;;;;5088204;28;19924;-58
2022/07/15 12:52:31;;;;;;;;;;;21.90;46.00;;;;;;5090701;28;19947;-57
2022/07/15 12:54:58;;;;;;;;;;;21.80;46.00;;;;;;5088276;28;19963;-57
2022/07/15 12:57:30;;;;;;;;;;;21.80;46.00;;;;;;5073096;28;19925;-58
2022/07/15 13:00:00;;;;;;;;;;;21.80;46.10;;;;;;5071088;28;20435;-58
2022/07/15 13:02:27;;;;;;;;;;;21.80;46.20;;;;;;5074050;28;19927;-57
2022/07/15 13:04:54;;;;;;;;;;;21.80;46.30;;;;;;5074307;28;19924;-57
2022/07/15 13:07:21;;;;;;;;;;;21.80;46.40;;;;;;5073911;28;19956;-58
2022/07/15 13:09:48;;;;;;;;;;;21.80;46.40;;;;;;5087701;28;21002;-59
2022/07/15 13:12:15;;;;;;;;;;;21.80;46.50;;;;;;5055636;28;19934;-58
2022/07/15 13:14:43;;;;;;;;;;;21.80;46.50;;;;;;5073751;28;19927;-57
2022/07/15 13:17:13;;;;;;;;;;;21.80;46.60;;;;;;5094168;28;20269;-56
2022/07/15 13:19:39;;;;;;;;;;;21.80;46.60;;;;;;5093716;28;20008;-58
2022/07/15 13:22:07;;;;;;;;;;;21.90;46.80;;;;;;5109983;28;19920;-58
2022/07/15 13:24:34;;;;;;;;;;;21.90;46.80;;;;;;5092831;28;19934;-58
2022/07/15 13:27:01;;;;;;;;;;;21.90;46.80;;;;;;5094118;28;19962;-58
2022/07/15 13:29:27;;;;;;;;;;;21.90;46.90;;;;;;5093533;28;19920;-58
2022/07/15 13:31:57;;;;;;;;;;;21.90;46.90;;;;;;5095985;28;19921;-57
2022/07/15 13:34:24;;;;;;;;;;;21.90;47.00;;;;;;5074023;28;19920;-58
2022/07/15 13:36:51;;;;;;;;;;;21.90;47.00;;;;;;5073364;28;19921;-57
2022/07/15 13:39:17;;;;;;;;;;;21.90;47.00;;;;;;5073800;28;19921;-58
2022/07/15 13:41:44;;;;;;;;;;;21.90;47.10;;;;;;5071469;28;19928;-58
2022/07/15 13:44:11;;;;;;;;;;;21.90;47.10;;;;;;5073696;28;19920;-57
2022/07/15 13:46:38;;;;;;;;;;;21.90;47.10;;;;;;5090191;28;19921;-57
2022/07/15 13:49:06;;;;;;;;;;;21.90;47.20;;;;;;5069927;28;19967;-58
2022/07/15 13:51:32;;;;;;;;;;;21.90;47.10;;;;;;5069162;28;19928;-58
2022/07/15 13:53:58;;;;;;;;;;;21.90;47.20;;;;;;5073403;28;19928;-58
2022/07/15 13:56:25;;;;;;;;;;;21.90;47.20;;;;;;5103030;28;19927;-60
2022/07/15 13:58:54;;;;;;;;;;;21.90;47.10;;;;;;5092423;28;19920;-57
2022/07/15 14:01:21;;;;;;;;;;;21.90;47.00;;;;;;5111760;28;19989;-58
2022/07/15 14:03:47;;;;;;;;;;;21.90;46.70;;;;;;5096598;28;19920;-58
2022/07/15 14:06:15;;;;;;;;;;;21.90;46.60;;;;;;5082579;28;19967;-56
2022/07/15 14:08:42;;;;;;;;;;;21.90;46.50;;;;;;5072664;28;19935;-57
2022/07/15 14:11:09;;;;;;;;;;;21.90;46.50;;;;;;5076434;28;19927;-58
2022/07/15 14:13:36;;;;;;;;;;;21.90;46.40;;;;;;5092558;28;19974;-58
2022/07/15 14:16:02;;;;;;;;;;;21.90;46.40;;;;;;5073596;28;19921;-58
2022/07/15 14:18:45;;;;;;;;;;;21.80;46.30;;;;;;5076776;28;19974;-57
2022/07/15 14:21:13;;;;;;;;;;;21.80;46.30;;;;;;5073759;28;20361;-57
2022/07/15 14:23:41;;;;;;;;;;;21.80;46.10;;;;;;5076531;28;19920;-60
2022/07/15 14:26:07;;;;;;;;;;;21.80;46.00;;;;;;5076186;28;19927;-58
2022/07/15 14:28:34;;;;;;;;;;;21.80;46.00;;;;;;5076849;28;19967;-58
2022/07/15 14:31:01;;;;;;;;;;;21.80;46.00;;;;;;5074138;28;20247;-58